sensor_id;sensor_type;location;lat;lon;timestamp;temperature;humidity
35680;DHT22;21803;53.586;10.040;2022-07-22T00:01:31;27.60;53.40
35680;DHT22;21803;53.586;10.040;2022-07-22T00:03:57;27.60;53.40
35680;DHT22;21803;53.586;10.040;2022-07-22T00:06:22;27.80;53.50
35680;DHT22;21803;53.586;10.040;2022-07-22T00:08:48;27.70;53.40
35680;DHT22;21803;53.586;10.040;2022-07-22T00:11:13;27.60;53.30
35680;DHT22;21803;53.586;10.040;2022-07-22T00:13:39;27.70;53.70
35680;DHT22;21803;53.586;10.040;2022-07-22T00:16:05;27.60;53.30
35680;DHT22;21803;53.586;10.040;2022-07-22T00:18:31;27.70;53.90
35680;DHT22;21803;53.586;10.040;2022-07-22T00:20:56;27.70;53.30
35680;DHT22;21803;53.586;10.040;2022-07-22T00:23:22;27.70;53.20
35680;DHT22;21803;53.586;10.040;2022-07-22T00:25:48;27.60;53.20
35680;DHT22;21803;53.586;10.040;2022-07-22T00:28:13;27.60;53.20
35680;DHT22;21803;53.586;10.040;2022-07-22T00:30:39;27.60;53.20
35680;DHT22;21803;53.586;10.040;2022-07-22T00:33:04;27.70;53.20
35680;DHT22;21803;53.586;10.040;2022-07-22T00:35:30;27.70;53.20
35680;DHT22;21803;53.586;10.040;2022-07-22T00:37:55;27.60;53.00
35680;DHT22;21803;53.586;10.040;2022-07-22T00:40:21;27.60;53.00
35680;DHT22;21803;53.586;10.040;2022-07-22T00:42:46;27.70;53.10
35680;DHT22;21803;53.586;10.040;2022-07-22T00:45:12;27.60;53.10
35680;DHT22;21803;53.586;10.040;2022-07-22T00:47:38;27.60;53.00
35680;DHT22;21803;53.586;10.040;2022-07-22T00:50:04;27.60;53.00
35680;DHT22;21803;53.586;10.040;2022-07-22T00:52:32;27.60;52.80
35680;DHT22;21803;53.586;10.040;2022-07-22T00:54:59;27.60;52.90
35680;DHT22;21803;53.586;10.040;2022-07-22T00:57:25;27.60;52.80
35680;DHT22;21803;53.586;10.040;2022-07-22T00:59:51;27.60;52.80
35680;DHT22;21803;53.586;10.040;2022-07-22T01:02:16;27.60;52.70
35680;DHT22;21803;53.586;10.040;2022-07-22T01:04:42;27.60;52.70
35680;DHT22;21803;53.586;10.040;2022-07-22T01:07:08;27.60;52.70
35680;DHT22;21803;53.586;10.040;2022-07-22T01:09:33;27.60;52.80
35680;DHT22;21803;53.586;10.040;2022-07-22T01:12:00;27.50;52.60
35680;DHT22;21803;53.586;10.040;2022-07-22T01:14:25;27.60;52.60
35680;DHT22;21803;53.586;10.040;2022-07-22T01:16:51;27.60;52.70
35680;DHT22;21803;53.586;10.040;2022-07-22T01:19:17;27.60;52.60
35680;DHT22;21803;53.586;10.040;2022-07-22T01:21:42;27.60;52.60
35680;DHT22;21803;53.586;10.040;2022-07-22T01:24:08;27.60;52.60
35680;DHT22;21803;53.586;10.040;2022-07-22T01:26:33;27.60;52.60
35680;DHT22;21803;53.586;10.040;2022-07-22T01:28:59;27.60;52.50
35680;DHT22;21803;53.586;10.040;2022-07-22T01:31:25;27.60;52.60
35680;DHT22;21803;53.586;10.040;2022-07-22T01:33:50;27.60;52.50
35680;DHT22;21803;53.586;10.040;2022-07-22T01:36:16;27.60;52.50
35680;DHT22;21803;53.586;10.040;2022-07-22T01:38:41;27.60;52.40
35680;DHT22;21803;53.586;10.040;2022-07-22T01:41:07;27.60;52.40
35680;DHT22;21803;53.586;10.040;2022-07-22T01:43:33;27.60;52.30
35680;DHT22;21803;53.586;10.040;2022-07-22T01:45:59;27.60;52.30
35680;DHT22;21803;53.586;10.040;2022-07-22T01:48:25;27.60;52.20
35680;DHT22;21803;53.586;10.040;2022-07-22T01:50:51;27.70;52.40
35680;DHT22;21803;53.586;10.040;2022-07-22T01:53:16;27.60;52.10
35680;DHT22;21803;53.586;10.040;2022-07-22T01:55:42;27.60;52.00
35680;DHT22;21803;53.586;10.040;2022-07-22T01:58:08;27.60;52.00
35680;DHT22;21803;53.586;10.040;2022-07-22T02:00:34;27.50;51.70
35680;DHT22;21803;53.586;10.040;2022-07-22T02:03:00;27.60;51.70
35680;DHT22;21803;53.586;10.040;2022-07-22T02:05:26;27.60;51.80
35680;DHT22;21803;53.586;10.040;2022-07-22T02:07:52;27.60;51.70
35680;DHT22;21803;53.586;10.040;2022-07-22T02:10:18;27.60;51.60
35680;DHT22;21803;53.586;10.040;2022-07-22T02:12:43;27.60;51.50
35680;DHT22;21803;53.586;10.040;2022-07-22T02:15:09;27.60;51.50
35680;DHT22;21803;53.586;10.040;2022-07-22T02:17:36;27.50;51.40
35680;DHT22;21803;53.586;10.040;2022-07-22T02:20:03;27.60;51.30
35680;DHT22;21803;53.586;10.040;2022-07-22T02:22:28;27.50;51.20
35680;DHT22;21803;53.586;10.040;2022-07-22T02:24:54;27.60;51.30
35680;DHT22;21803;53.586;10.040;2022-07-22T02:27:20;26.50;50.60
35680;DHT22;21803;53.586;10.040;2022-07-22T02:29:45;27.60;51.40
35680;DHT22;21803;53.586;10.040;2022-07-22T02:32:11;27.60;51.40
35680;DHT22;21803;53.586;10.040;2022-07-22T02:34:37;27.60;51.30
35680;DHT22;21803;53.586;10.040;2022-07-22T02:37:02;27.50;51.30
35680;DHT22;21803;53.586;10.040;2022-07-22T02:39:28;27.60;51.20
35680;DHT22;21803;53.586;10.040;2022-07-22T02:41:54;27.50;51.10
35680;DHT22;21803;53.586;10.040;2022-07-22T02:44:19;27.60;51.20
35680;DHT22;21803;53.586;10.040;2022-07-22T02:46:45;27.50;51.10
35680;DHT22;21803;53.586;10.040;2022-07-22T02:49:11;27.60;51.10
35680;DHT22;21803;53.586;10.040;2022-07-22T02:51:37;27.60;51.10
35680;DHT22;21803;53.586;10.040;2022-07-22T02:54:03;27.60;51.10
35680;DHT22;21803;53.586;10.040;2022-07-22T02:56:29;27.50;51.00
35680;DHT22;21803;53.586;10.040;2022-07-22T02:58:54;27.60;51.10
35680;DHT22;21803;53.586;10.040;2022-07-22T03:01:20;27.60;51.00
35680;DHT22;21803;53.586;10.040;2022-07-22T03:03:45;27.60;50.90
35680;DHT22;21803;53.586;10.040;2022-07-22T03:06:11;27.60;50.90
35680;DHT22;21803;53.586;10.040;2022-07-22T03:08:37;27.60;51.00
35680;DHT22;21803;53.586;10.040;2022-07-22T03:11:03;27.50;50.80
35680;DHT22;21803;53.586;10.040;2022-07-22T03:13:28;27.60;50.80
35680;DHT22;21803;53.586;10.040;2022-07-22T03:15:54;27.50;50.80
35680;DHT22;21803;53.586;10.040;2022-07-22T03:18:20;27.60;50.70
35680;DHT22;21803;53.586;10.040;2022-07-22T03:20:45;27.50;50.70
35680;DHT22;21803;53.586;10.040;2022-07-22T03:23:11;27.50;50.70
35680;DHT22;21803;53.586;10.040;2022-07-22T03:25:36;27.50;50.70
35680;DHT22;21803;53.586;10.040;2022-07-22T03:28:02;27.50;50.60
35680;DHT22;21803;53.586;10.040;2022-07-22T03:30:28;27.50;50.50
35680;DHT22;21803;53.586;10.040;2022-07-22T03:32:53;27.50;50.60
35680;DHT22;21803;53.586;10.040;2022-07-22T03:35:19;27.50;50.60
35680;DHT22;21803;53.586;10.040;2022-07-22T03:37:44;27.50;50.60
35680;DHT22;21803;53.586;10.040;2022-07-22T03:40:10;27.50;50.50
35680;DHT22;21803;53.586;10.040;2022-07-22T03:42:36;27.50;50.60
35680;DHT22;21803;53.586;10.040;2022-07-22T03:45:02;27.50;50.70
35680;DHT22;21803;53.586;10.040;2022-07-22T03:47:27;27.50;50.60
35680;DHT22;21803;53.586;10.040;2022-07-22T03:49:53;27.50;50.70
35680;DHT22;21803;53.586;10.040;2022-07-22T03:52:18;29.00;51.40
35680;DHT22;21803;53.586;10.040;2022-07-22T03:54:44;27.50;50.40
35680;DHT22;21803;53.586;10.040;2022-07-22T03:57:10;27.50;50.30
35680;DHT22;21803;53.586;10.040;2022-07-22T03:59:36;27.50;50.20
35680;DHT22;21803;53.586;10.040;2022-07-22T04:02:02;27.50;50.20
35680;DHT22;21803;53.586;10.040;2022-07-22T04:04:28;27.50;50.20
35680;DHT22;21803;53.586;10.040;2022-07-22T04:06:54;27.50;50.00
35680;DHT22;21803;53.586;10.040;2022-07-22T04:09:20;27.50;50.10
35680;DHT22;21803;53.586;10.040;2022-07-22T04:11:46;27.50;50.60
35680;DHT22;21803;53.586;10.040;2022-07-22T04:14:11;27.50;50.00
35680;DHT22;21803;53.586;10.040;2022-07-22T04:16:37;27.50;49.90
35680;DHT22;21803;53.586;10.040;2022-07-22T04:19:03;27.50;49.90
35680;DHT22;21803;53.586;10.040;2022-07-22T04:21:29;27.50;50.00
35680;DHT22;21803;53.586;10.040;2022-07-22T04:23:55;27.50;50.20
35680;DHT22;21803;53.586;10.040;2022-07-22T04:26:21;27.50;50.10
35680;DHT22;21803;53.586;10.040;2022-07-22T04:28:46;27.50;50.20
35680;DHT22;21803;53.586;10.040;2022-07-22T04:31:12;27.50;50.30
35680;DHT22;21803;53.586;10.040;2022-07-22T04:33:38;27.50;50.20
35680;DHT22;21803;53.586;10.040;2022-07-22T04:36:03;27.50;50.10
35680;DHT22;21803;53.586;10.040;2022-07-22T04:38:29;27.50;50.00
35680;DHT22;21803;53.586;10.040;2022-07-22T04:40:55;27.50;50.00
35680;DHT22;21803;53.586;10.040;2022-07-22T04:43:20;27.50;49.90
35680;DHT22;21803;53.586;10.040;2022-07-22T04:45:46;27.50;49.90
35680;DHT22;21803;53.586;10.040;2022-07-22T04:48:12;27.50;49.90
35680;DHT22;21803;53.586;10.040;2022-07-22T04:50:37;27.50;50.00
35680;DHT22;21803;53.586;10.040;2022-07-22T04:53:03;27.50;50.00
35680;DHT22;21803;53.586;10.040;2022-07-22T04:55:29;27.50;50.10
35680;DHT22;21803;53.586;10.040;2022-07-22T04:57:54;27.50;50.30
35680;DHT22;21803;53.586;10.040;2022-07-22T05:00:20;27.50;50.40
35680;DHT22;21803;53.586;10.040;2022-07-22T05:02:46;27.50;50.50
35680;DHT22;21803;53.586;10.040;2022-07-22T05:05:12;27.50;50.70
35680;DHT22;21803;53.586;10.040;2022-07-22T05:07:37;27.50;50.80
35680;DHT22;21803;53.586;10.040;2022-07-22T05:10:03;27.50;50.80
35680;DHT22;21803;53.586;10.040;2022-07-22T05:12:29;27.50;50.70
35680;DHT22;21803;53.586;10.040;2022-07-22T05:14:54;27.50;50.60
35680;DHT22;21803;53.586;10.040;2022-07-22T05:17:20;27.50;50.60
35680;DHT22;21803;53.586;10.040;2022-07-22T05:19:46;27.50;50.50
35680;DHT22;21803;53.586;10.040;2022-07-22T05:22:11;27.50;50.50
35680;DHT22;21803;53.586;10.040;2022-07-22T05:24:37;27.50;50.40
35680;DHT22;21803;53.586;10.040;2022-07-22T05:27:03;27.50;50.60
35680;DHT22;21803;53.586;10.040;2022-07-22T05:29:28;27.50;50.70
35680;DHT22;21803;53.586;10.040;2022-07-22T05:31:54;27.50;50.60
35680;DHT22;21803;53.586;10.040;2022-07-22T05:34:20;27.50;50.50
35680;DHT22;21803;53.586;10.040;2022-07-22T05:36:45;27.50;50.40
35680;DHT22;21803;53.586;10.040;2022-07-22T05:39:11;27.50;50.30
35680;DHT22;21803;53.586;10.040;2022-07-22T05:41:36;27.50;50.30
35680;DHT22;21803;53.586;10.040;2022-07-22T05:44:03;27.50;50.20
35680;DHT22;21803;53.586;10.040;2022-07-22T05:46:29;27.50;50.20
35680;DHT22;21803;53.586;10.040;2022-07-22T05:48:55;27.50;50.10
35680;DHT22;21803;53.586;10.040;2022-07-22T05:51:21;27.50;50.10
35680;DHT22;21803;53.586;10.040;2022-07-22T05:53:47;27.50;50.00
35680;DHT22;21803;53.586;10.040;2022-07-22T05:56:12;27.50;50.00
35680;DHT22;21803;53.586;10.040;2022-07-22T05:58:40;27.50;50.00
35680;DHT22;21803;53.586;10.040;2022-07-22T06:01:07;27.50;49.90
35680;DHT22;21803;53.586;10.040;2022-07-22T06:03:33;27.50;49.90
35680;DHT22;21803;53.586;10.040;2022-07-22T06:05:58;27.60;49.80
35680;DHT22;21803;53.586;10.040;2022-07-22T06:08:26;27.50;49.90
35680;DHT22;21803;53.586;10.040;2022-07-22T06:10:52;27.50;49.70
35680;DHT22;21803;53.586;10.040;2022-07-22T06:13:18;27.50;49.70
35680;DHT22;21803;53.586;10.040;2022-07-22T06:15:44;27.50;49.70
35680;DHT22;21803;53.586;10.040;2022-07-22T06:18:09;27.50;49.70
35680;DHT22;21803;53.586;10.040;2022-07-22T06:20:35;27.50;49.60
35680;DHT22;21803;53.586;10.040;2022-07-22T06:23:00;27.60;49.70
35680;DHT22;21803;53.586;10.040;2022-07-22T06:25:26;27.50;49.50
35680;DHT22;21803;53.586;10.040;2022-07-22T06:27:52;27.50;49.60
35680;DHT22;21803;53.586;10.040;2022-07-22T06:30:17;27.50;49.60
35680;DHT22;21803;53.586;10.040;2022-07-22T06:32:43;27.50;49.50
35680;DHT22;21803;53.586;10.040;2022-07-22T06:35:09;27.50;49.50
35680;DHT22;21803;53.586;10.040;2022-07-22T06:37:35;27.50;49.50
35680;DHT22;21803;53.586;10.040;2022-07-22T06:40:00;27.50;49.40
35680;DHT22;21803;53.586;10.040;2022-07-22T06:42:26;27.50;49.40
35680;DHT22;21803;53.586;10.040;2022-07-22T06:44:52;27.60;49.40
35680;DHT22;21803;53.586;10.040;2022-07-22T06:47:17;27.50;49.30
35680;DHT22;21803;53.586;10.040;2022-07-22T06:49:43;27.60;49.40
35680;DHT22;21803;53.586;10.040;2022-07-22T06:52:08;27.60;49.30
35680;DHT22;21803;53.586;10.040;2022-07-22T06:54:34;27.60;49.30
35680;DHT22;21803;53.586;10.040;2022-07-22T06:56:59;27.60;49.30
35680;DHT22;21803;53.586;10.040;2022-07-22T06:59:25;27.60;49.30
35680;DHT22;21803;53.586;10.040;2022-07-22T07:01:51;27.60;49.30
35680;DHT22;21803;53.586;10.040;2022-07-22T07:04:17;27.60;49.50
35680;DHT22;21803;53.586;10.040;2022-07-22T07:06:44;27.60;49.60
35680;DHT22;21803;53.586;10.040;2022-07-22T07:09:09;27.60;49.70
35680;DHT22;21803;53.586;10.040;2022-07-22T07:11:35;27.60;49.70
35680;DHT22;21803;53.586;10.040;2022-07-22T07:14:00;27.60;49.70
35680;DHT22;21803;53.586;10.040;2022-07-22T07:16:26;27.60;49.70
35680;DHT22;21803;53.586;10.040;2022-07-22T07:18:51;27.60;49.60
35680;DHT22;21803;53.586;10.040;2022-07-22T07:21:17;27.60;49.60
35680;DHT22;21803;53.586;10.040;2022-07-22T07:23:43;27.60;49.70
35680;DHT22;21803;53.586;10.040;2022-07-22T07:26:09;27.60;49.70
35680;DHT22;21803;53.586;10.040;2022-07-22T07:28:34;27.60;49.70
35680;DHT22;21803;53.586;10.040;2022-07-22T07:31:00;27.60;49.70
35680;DHT22;21803;53.586;10.040;2022-07-22T07:33:26;27.60;49.80
35680;DHT22;21803;53.586;10.040;2022-07-22T07:35:52;27.50;49.70
35680;DHT22;21803;53.586;10.040;2022-07-22T07:38:18;27.50;49.70
35680;DHT22;21803;53.586;10.040;2022-07-22T07:40:43;27.50;49.70
35680;DHT22;21803;53.586;10.040;2022-07-22T07:43:09;27.50;49.70
35680;DHT22;21803;53.586;10.040;2022-07-22T07:45:35;27.50;49.70
35680;DHT22;21803;53.586;10.040;2022-07-22T07:48:01;27.50;49.60
35680;DHT22;21803;53.586;10.040;2022-07-22T07:50:26;27.60;49.70
35680;DHT22;21803;53.586;10.040;2022-07-22T07:52:52;27.50;49.60
35680;DHT22;21803;53.586;10.040;2022-07-22T07:55:18;27.60;49.60
35680;DHT22;21803;53.586;10.040;2022-07-22T07:57:44;27.50;49.50
35680;DHT22;21803;53.586;10.040;2022-07-22T08:00:14;27.60;49.60
35680;DHT22;21803;53.586;10.040;2022-07-22T08:02:40;27.50;49.50
35680;DHT22;21803;53.586;10.040;2022-07-22T08:05:07;27.50;49.50
35680;DHT22;21803;53.586;10.040;2022-07-22T08:07:33;27.50;50.10
35680;DHT22;21803;53.586;10.040;2022-07-22T08:09:58;27.60;49.60
35680;DHT22;21803;53.586;10.040;2022-07-22T08:12:24;27.60;49.60
35680;DHT22;21803;53.586;10.040;2022-07-22T08:14:50;27.60;49.50
35680;DHT22;21803;53.586;10.040;2022-07-22T08:17:15;27.60;49.50
35680;DHT22;21803;53.586;10.040;2022-07-22T08:19:41;27.60;49.40
35680;DHT22;21803;53.586;10.040;2022-07-22T08:22:06;27.60;49.40
35680;DHT22;21803;53.586;10.040;2022-07-22T08:24:32;27.60;49.30
35680;DHT22;21803;53.586;10.040;2022-07-22T08:26:58;27.60;49.40
35680;DHT22;21803;53.586;10.040;2022-07-22T08:29:23;27.60;49.30
35680;DHT22;21803;53.586;10.040;2022-07-22T08:31:49;27.60;49.20
35680;DHT22;21803;53.586;10.040;2022-07-22T08:34:14;27.60;49.20
35680;DHT22;21803;53.586;10.040;2022-07-22T08:36:40;27.60;49.20
35680;DHT22;21803;53.586;10.040;2022-07-22T08:39:05;27.60;49.20
35680;DHT22;21803;53.586;10.040;2022-07-22T08:41:35;27.60;49.10
35680;DHT22;21803;53.586;10.040;2022-07-22T08:44:06;27.60;49.00
35680;DHT22;21803;53.586;10.040;2022-07-22T08:46:32;27.60;49.00
35680;DHT22;21803;53.586;10.040;2022-07-22T08:48:58;27.60;49.00
35680;DHT22;21803;53.586;10.040;2022-07-22T08:51:26;27.60;49.00
35680;DHT22;21803;53.586;10.040;2022-07-22T08:53:52;27.60;49.00
35680;DHT22;21803;53.586;10.040;2022-07-22T08:56:18;27.60;48.90
35680;DHT22;21803;53.586;10.040;2022-07-22T08:58:44;27.70;49.00
35680;DHT22;21803;53.586;10.040;2022-07-22T09:01:15;27.60;49.00
35680;DHT22;21803;53.586;10.040;2022-07-22T09:03:52;27.70;48.90
35680;DHT22;21803;53.586;10.040;2022-07-22T09:06:20;27.70;48.90
35680;DHT22;21803;53.586;10.040;2022-07-22T09:08:54;27.70;48.90
35680;DHT22;21803;53.586;10.040;2022-07-22T09:11:22;27.70;48.90
35680;DHT22;21803;53.586;10.040;2022-07-22T09:13:48;27.60;48.80
35680;DHT22;21803;53.586;10.040;2022-07-22T09:16:14;27.70;48.90
35680;DHT22;21803;53.586;10.040;2022-07-22T09:18:48;27.60;48.80
35680;DHT22;21803;53.586;10.040;2022-07-22T09:21:14;27.70;48.90
35680;DHT22;21803;53.586;10.040;2022-07-22T09:23:41;27.70;48.80
35680;DHT22;21803;53.586;10.040;2022-07-22T09:26:07;27.70;48.70
35680;DHT22;21803;53.586;10.040;2022-07-22T09:28:33;27.70;48.70
35680;DHT22;21803;53.586;10.040;2022-07-22T09:30:59;27.70;48.30
35680;DHT22;21803;53.586;10.040;2022-07-22T09:33:25;27.70;48.30
35680;DHT22;21803;53.586;10.040;2022-07-22T09:35:51;27.70;48.40
35680;DHT22;21803;53.586;10.040;2022-07-22T09:38:26;27.70;48.40
35680;DHT22;21803;53.586;10.040;2022-07-22T09:40:52;27.70;48.30
35680;DHT22;21803;53.586;10.040;2022-07-22T09:43:20;27.70;48.00
35680;DHT22;21803;53.586;10.040;2022-07-22T09:48:16;27.70;47.70
35680;DHT22;21803;53.586;10.040;2022-07-22T09:50:44;27.70;47.40
35680;DHT22;21803;53.586;10.040;2022-07-22T09:53:10;27.60;47.20
35680;DHT22;21803;53.586;10.040;2022-07-22T09:55:38;27.70;47.50
35680;DHT22;21803;53.586;10.040;2022-07-22T09:58:04;27.70;47.30
35680;DHT22;21803;53.586;10.040;2022-07-22T10:00:31;27.70;47.20
35680;DHT22;21803;53.586;10.040;2022-07-22T10:02:59;27.70;47.00
35680;DHT22;21803;53.586;10.040;2022-07-22T10:05:31;27.70;46.90
35680;DHT22;21803;53.586;10.040;2022-07-22T10:07:57;27.60;46.70
35680;DHT22;21803;53.586;10.040;2022-07-22T10:10:25;27.70;46.70
35680;DHT22;21803;53.586;10.040;2022-07-22T10:12:53;27.70;46.60
35680;DHT22;21803;53.586;10.040;2022-07-22T10:15:19;27.60;46.50
35680;DHT22;21803;53.586;10.040;2022-07-22T10:17:51;27.70;46.60
35680;DHT22;21803;53.586;10.040;2022-07-22T10:20:18;27.60;46.40
35680;DHT22;21803;53.586;10.040;2022-07-22T10:22:47;27.70;46.40
35680;DHT22;21803;53.586;10.040;2022-07-22T10:25:15;27.70;46.40
35680;DHT22;21803;53.586;10.040;2022-07-22T10:27:56;27.70;46.30
35680;DHT22;21803;53.586;10.040;2022-07-22T10:30:30;27.60;46.20
35680;DHT22;21803;53.586;10.040;2022-07-22T10:33:15;27.60;46.10
35680;DHT22;21803;53.586;10.040;2022-07-22T10:38:11;27.60;46.10
35680;DHT22;21803;53.586;10.040;2022-07-22T10:41:00;27.60;46.10
35680;DHT22;21803;53.586;10.040;2022-07-22T10:43:30;27.60;46.00
35680;DHT22;21803;53.586;10.040;2022-07-22T10:45:58;27.70;46.00
35680;DHT22;21803;53.586;10.040;2022-07-22T10:51:20;27.60;46.00
35680;DHT22;21803;53.586;10.040;2022-07-22T10:58:53;27.60;45.70
35680;DHT22;21803;53.586;10.040;2022-07-22T11:01:22;27.60;45.60
35680;DHT22;21803;53.586;10.040;2022-07-22T11:03:48;27.60;45.70
35680;DHT22;21803;53.586;10.040;2022-07-22T11:06:26;27.60;45.70
35680;DHT22;21803;53.586;10.040;2022-07-22T11:08:58;27.60;45.60
35680;DHT22;21803;53.586;10.040;2022-07-22T11:11:49;27.60;45.50
35680;DHT22;21803;53.586;10.040;2022-07-22T11:14:43;27.60;45.40
35680;DHT22;21803;53.586;10.040;2022-07-22T11:17:12;27.60;45.20
35680;DHT22;21803;53.586;10.040;2022-07-22T11:19:41;27.60;45.20
35680;DHT22;21803;53.586;10.040;2022-07-22T11:22:11;27.60;45.20
35680;DHT22;21803;53.586;10.040;2022-07-22T11:24:39;27.60;45.20
35680;DHT22;21803;53.586;10.040;2022-07-22T11:27:12;27.60;45.00
35680;DHT22;21803;53.586;10.040;2022-07-22T11:29:40;27.60;45.10
35680;DHT22;21803;53.586;10.040;2022-07-22T11:32:12;27.60;44.90
35680;DHT22;21803;53.586;10.040;2022-07-22T11:34:40;27.60;44.90
35680;DHT22;21803;53.586;10.040;2022-07-22T11:37:14;27.60;44.90
35680;DHT22;21803;53.586;10.040;2022-07-22T11:39:40;27.60;44.90
35680;DHT22;21803;53.586;10.040;2022-07-22T11:42:06;27.60;44.80
35680;DHT22;21803;53.586;10.040;2022-07-22T11:44:35;27.60;44.70
35680;DHT22;21803;53.586;10.040;2022-07-22T11:47:01;27.60;44.70
35680;DHT22;21803;53.586;10.040;2022-07-22T11:49:29;27.60;44.70
35680;DHT22;21803;53.586;10.040;2022-07-22T11:51:55;27.60;44.70
35680;DHT22;21803;53.586;10.040;2022-07-22T11:54:21;27.60;44.80
35680;DHT22;21803;53.586;10.040;2022-07-22T11:56:47;27.70;44.90
35680;DHT22;21803;53.586;10.040;2022-07-22T11:59:15;27.70;44.80
35680;DHT22;21803;53.586;10.040;2022-07-22T12:01:41;27.60;44.70
35680;DHT22;21803;53.586;10.040;2022-07-22T12:04:20;27.60;44.70
35680;DHT22;21803;53.586;10.040;2022-07-22T12:06:46;27.60;44.60
35680;DHT22;21803;53.586;10.040;2022-07-22T12:09:20;27.70;44.60
35680;DHT22;21803;53.586;10.040;2022-07-22T12:11:48;27.60;44.50
35680;DHT22;21803;53.586;10.040;2022-07-22T12:14:21;27.60;43.40
35680;DHT22;21803;53.586;10.040;2022-07-22T12:17:13;27.60;42.20
35680;DHT22;21803;53.586;10.040;2022-07-22T12:19:40;27.60;41.30
35680;DHT22;21803;53.586;10.040;2022-07-22T12:22:20;27.50;40.50
35680;DHT22;21803;53.586;10.040;2022-07-22T12:24:59;27.50;41.40
35680;DHT22;21803;53.586;10.040;2022-07-22T12:27:25;27.40;42.90
35680;DHT22;21803;53.586;10.040;2022-07-22T12:29:51;27.40;43.70
35680;DHT22;21803;53.586;10.040;2022-07-22T12:34:44;27.30;44.70
35680;DHT22;21803;53.586;10.040;2022-07-22T12:37:20;27.30;45.20
35680;DHT22;21803;53.586;10.040;2022-07-22T12:40:06;27.30;45.20
35680;DHT22;21803;53.586;10.040;2022-07-22T12:42:43;27.20;45.00
35680;DHT22;21803;53.586;10.040;2022-07-22T12:45:15;27.30;44.80
35680;DHT22;21803;53.586;10.040;2022-07-22T12:47:52;27.30;44.70
35680;DHT22;21803;53.586;10.040;2022-07-22T12:52:51;27.30;44.50
35680;DHT22;21803;53.586;10.040;2022-07-22T12:55:17;27.30;44.30
35680;DHT22;21803;53.586;10.040;2022-07-22T12:57:43;27.30;44.20
35680;DHT22;21803;53.586;10.040;2022-07-22T13:00:08;27.30;44.10
35680;DHT22;21803;53.586;10.040;2022-07-22T13:02:35;27.30;44.20
35680;DHT22;21803;53.586;10.040;2022-07-22T13:05:00;27.30;44.10
35680;DHT22;21803;53.586;10.040;2022-07-22T13:07:26;27.30;44.00
35680;DHT22;21803;53.586;10.040;2022-07-22T13:09:51;27.30;44.00
35680;DHT22;21803;53.586;10.040;2022-07-22T13:12:17;27.30;43.90
35680;DHT22;21803;53.586;10.040;2022-07-22T13:14:42;27.30;43.80
35680;DHT22;21803;53.586;10.040;2022-07-22T13:17:08;27.30;43.80
35680;DHT22;21803;53.586;10.040;2022-07-22T13:19:33;27.30;44.00
35680;DHT22;21803;53.586;10.040;2022-07-22T13:21:59;27.40;44.70
35680;DHT22;21803;53.586;10.040;2022-07-22T13:24:25;27.40;44.50
35680;DHT22;21803;53.586;10.040;2022-07-22T13:26:50;27.50;43.90
35680;DHT22;21803;53.586;10.040;2022-07-22T13:29:16;27.50;43.50
35680;DHT22;21803;53.586;10.040;2022-07-22T13:31:42;27.50;43.30
35680;DHT22;21803;53.586;10.040;2022-07-22T13:34:08;27.50;43.20
35680;DHT22;21803;53.586;10.040;2022-07-22T13:36:33;27.50;43.10
35680;DHT22;21803;53.586;10.040;2022-07-22T13:38:59;27.50;43.00
35680;DHT22;21803;53.586;10.040;2022-07-22T13:41:25;27.60;43.00
35680;DHT22;21803;53.586;10.040;2022-07-22T13:43:51;27.60;42.90
35680;DHT22;21803;53.586;10.040;2022-07-22T13:46:17;27.60;42.90
35680;DHT22;21803;53.586;10.040;2022-07-22T13:48:43;27.60;42.80
35680;DHT22;21803;53.586;10.040;2022-07-22T13:51:09;27.60;42.80
35680;DHT22;21803;53.586;10.040;2022-07-22T13:53:35;27.60;42.70
35680;DHT22;21803;53.586;10.040;2022-07-22T13:56:00;27.60;42.70
35680;DHT22;21803;53.586;10.040;2022-07-22T13:58:26;27.60;42.70
35680;DHT22;21803;53.586;10.040;2022-07-22T14:00:52;27.60;42.60
35680;DHT22;21803;53.586;10.040;2022-07-22T14:03:18;27.60;42.50
35680;DHT22;21803;53.586;10.040;2022-07-22T14:05:44;27.60;42.50
35680;DHT22;21803;53.586;10.040;2022-07-22T14:08:11;27.70;42.50
35680;DHT22;21803;53.586;10.040;2022-07-22T14:10:36;27.60;42.50
35680;DHT22;21803;53.586;10.040;2022-07-22T14:13:02;27.60;42.40
35680;DHT22;21803;53.586;10.040;2022-07-22T14:15:28;27.70;42.30
35680;DHT22;21803;53.586;10.040;2022-07-22T14:17:53;27.60;42.30
35680;DHT22;21803;53.586;10.040;2022-07-22T14:20:19;27.70;42.40
35680;DHT22;21803;53.586;10.040;2022-07-22T14:22:44;27.60;42.20
35680;DHT22;21803;53.586;10.040;2022-07-22T14:25:10;27.70;42.30
35680;DHT22;21803;53.586;10.040;2022-07-22T14:27:36;27.70;42.30
35680;DHT22;21803;53.586;10.040;2022-07-22T14:30:01;27.60;42.20
35680;DHT22;21803;53.586;10.040;2022-07-22T14:32:27;27.70;42.30
35680;DHT22;21803;53.586;10.040;2022-07-22T14:34:53;27.60;42.20
35680;DHT22;21803;53.586;10.040;2022-07-22T14:37:18;27.70;42.30
35680;DHT22;21803;53.586;10.040;2022-07-22T14:39:44;27.60;42.20
35680;DHT22;21803;53.586;10.040;2022-07-22T14:42:09;27.70;42.30
35680;DHT22;21803;53.586;10.040;2022-07-22T14:44:35;27.70;42.30
35680;DHT22;21803;53.586;10.040;2022-07-22T14:47:00;27.70;42.30
35680;DHT22;21803;53.586;10.040;2022-07-22T14:49:27;27.70;42.30
35680;DHT22;21803;53.586;10.040;2022-07-22T14:51:52;27.70;42.30
35680;DHT22;21803;53.586;10.040;2022-07-22T14:54:18;27.70;42.20
35680;DHT22;21803;53.586;10.040;2022-07-22T14:56:44;27.70;42.50
35680;DHT22;21803;53.586;10.040;2022-07-22T14:59:10;27.70;42.90
35680;DHT22;21803;53.586;10.040;2022-07-22T15:01:35;27.70;45.00
35680;DHT22;21803;53.586;10.040;2022-07-22T15:04:01;27.70;49.50
35680;DHT22;21803;53.586;10.040;2022-07-22T15:06:27;27.70;51.10
35680;DHT22;21803;53.586;10.040;2022-07-22T15:08:52;27.60;60.20
35680;DHT22;21803;53.586;10.040;2022-07-22T15:11:18;27.60;65.60
35680;DHT22;21803;53.586;10.040;2022-07-22T15:13:44;27.60;64.60
35680;DHT22;21803;53.586;10.040;2022-07-22T15:16:09;27.40;61.30
35680;DHT22;21803;53.586;10.040;2022-07-22T15:18:36;27.40;58.00
35680;DHT22;21803;53.586;10.040;2022-07-22T15:21:02;27.40;54.80
35680;DHT22;21803;53.586;10.040;2022-07-22T15:23:28;27.30;52.40
35680;DHT22;21803;53.586;10.040;2022-07-22T15:25:58;27.40;51.30
35680;DHT22;21803;53.586;10.040;2022-07-22T15:28:24;27.30;50.90
35680;DHT22;21803;53.586;10.040;2022-07-22T15:30:51;27.30;50.80